sensor_id;sensor_type;location;lat;lon;timestamp;temperature;humidity
78028;DHT22;67235;45.638;11.714;2023-07-29T00:00:40;23.10;74.00
78028;DHT22;67235;45.638;11.714;2023-07-29T00:03:06;23.20;74.50
78028;DHT22;67235;45.638;11.714;2023-07-29T00:05:32;23.20;74.40
78028;DHT22;67235;45.638;11.714;2023-07-29T00:07:57;23.20;74.20
78028;DHT22;67235;45.638;11.714;2023-07-29T00:10:23;23.30;74.20
78028;DHT22;67235;45.638;11.714;2023-07-29T00:12:49;23.30;73.80
78028;DHT22;67235;45.638;11.714;2023-07-29T00:15:15;23.30;73.80
78028;DHT22;67235;45.638;11.714;2023-07-29T00:17:41;23.30;73.80
78028;DHT22;67235;45.638;11.714;2023-07-29T00:20:07;23.30;74.00
78028;DHT22;67235;45.638;11.714;2023-07-29T00:22:33;23.20;74.00
78028;DHT22;67235;45.638;11.714;2023-07-29T00:24:59;23.20;74.30
78028;DHT22;67235;45.638;11.714;2023-07-29T00:27:25;23.10;74.30
78028;DHT22;67235;45.638;11.714;2023-07-29T00:29:52;23.10;74.50
78028;DHT22;67235;45.638;11.714;2023-07-29T00:32:18;23.00;74.40
78028;DHT22;67235;45.638;11.714;2023-07-29T00:34:43;22.90;74.30
78028;DHT22;67235;45.638;11.714;2023-07-29T00:37:09;22.80;74.60
78028;DHT22;67235;45.638;11.714;2023-07-29T00:39:36;22.80;74.70
78028;DHT22;67235;45.638;11.714;2023-07-29T00:42:03;22.80;74.90
78028;DHT22;67235;45.638;11.714;2023-07-29T00:44:29;22.70;74.90
78028;DHT22;67235;45.638;11.714;2023-07-29T00:46:57;22.60;75.10
78028;DHT22;67235;45.638;11.714;2023-07-29T00:49:24;22.60;75.00
78028;DHT22;67235;45.638;11.714;2023-07-29T00:51:50;22.60;75.00
78028;DHT22;67235;45.638;11.714;2023-07-29T00:54:16;22.60;75.20
78028;DHT22;67235;45.638;11.714;2023-07-29T00:56:42;22.50;75.00
78028;DHT22;67235;45.638;11.714;2023-07-29T00:59:08;22.60;74.90
78028;DHT22;67235;45.638;11.714;2023-07-29T01:01:34;22.50;75.10
78028;DHT22;67235;45.638;11.714;2023-07-29T01:04:01;22.50;75.10
78028;DHT22;67235;45.638;11.714;2023-07-29T01:06:58;22.40;75.20
78028;DHT22;67235;45.638;11.714;2023-07-29T01:15:25;22.40;75.00
78028;DHT22;67235;45.638;11.714;2023-07-29T01:18:15;22.40;75.10
78028;DHT22;67235;45.638;11.714;2023-07-29T01:20:44;22.30;74.90
78028;DHT22;67235;45.638;11.714;2023-07-29T01:23:11;22.30;74.90
78028;DHT22;67235;45.638;11.714;2023-07-29T01:25:37;22.30;75.00
78028;DHT22;67235;45.638;11.714;2023-07-29T01:28:03;22.40;74.90
78028;DHT22;67235;45.638;11.714;2023-07-29T01:30:33;22.40;75.10
78028;DHT22;67235;45.638;11.714;2023-07-29T01:33:14;22.30;75.10
78028;DHT22;67235;45.638;11.714;2023-07-29T01:35:55;22.30;75.10
78028;DHT22;67235;45.638;11.714;2023-07-29T01:38:38;22.20;75.40
78028;DHT22;67235;45.638;11.714;2023-07-29T01:41:08;22.10;75.60
78028;DHT22;67235;45.638;11.714;2023-07-29T01:43:34;22.10;75.40
78028;DHT22;67235;45.638;11.714;2023-07-29T01:46:05;22.10;75.30
78028;DHT22;67235;45.638;11.714;2023-07-29T01:48:31;22.10;75.60
78028;DHT22;67235;45.638;11.714;2023-07-29T01:50:57;22.10;75.70
78028;DHT22;67235;45.638;11.714;2023-07-29T01:53:23;22.00;75.60
78028;DHT22;67235;45.638;11.714;2023-07-29T01:55:49;22.00;75.60
78028;DHT22;67235;45.638;11.714;2023-07-29T01:58:15;21.90;75.80
78028;DHT22;67235;45.638;11.714;2023-07-29T02:00:41;21.90;75.80
78028;DHT22;67235;45.638;11.714;2023-07-29T02:03:07;21.80;75.80
78028;DHT22;67235;45.638;11.714;2023-07-29T02:05:33;21.90;75.80
78028;DHT22;67235;45.638;11.714;2023-07-29T02:07:59;21.80;75.90
78028;DHT22;67235;45.638;11.714;2023-07-29T02:10:25;21.70;75.50
78028;DHT22;67235;45.638;11.714;2023-07-29T02:12:50;21.70;75.20
78028;DHT22;67235;45.638;11.714;2023-07-29T02:15:16;21.70;75.20
78028;DHT22;67235;45.638;11.714;2023-07-29T02:17:42;21.70;75.20
78028;DHT22;67235;45.638;11.714;2023-07-29T02:20:08;21.70;75.40
78028;DHT22;67235;45.638;11.714;2023-07-29T02:22:36;21.70;75.50
78028;DHT22;67235;45.638;11.714;2023-07-29T02:25:02;21.60;75.50
78028;DHT22;67235;45.638;11.714;2023-07-29T02:27:28;21.50;75.50
78028;DHT22;67235;45.638;11.714;2023-07-29T02:29:54;21.50;75.30
78028;DHT22;67235;45.638;11.714;2023-07-29T02:32:21;21.50;75.20
78028;DHT22;67235;45.638;11.714;2023-07-29T02:34:48;21.50;75.40
78028;DHT22;67235;45.638;11.714;2023-07-29T02:37:14;21.60;75.50
78028;DHT22;67235;45.638;11.714;2023-07-29T02:39:40;21.70;75.10
78028;DHT22;67235;45.638;11.714;2023-07-29T02:42:06;21.70;75.20
78028;DHT22;67235;45.638;11.714;2023-07-29T02:44:32;21.70;75.30
78028;DHT22;67235;45.638;11.714;2023-07-29T02:46:57;21.70;75.30
78028;DHT22;67235;45.638;11.714;2023-07-29T02:49:23;21.70;75.50
78028;DHT22;67235;45.638;11.714;2023-07-29T02:51:49;21.60;75.50
78028;DHT22;67235;45.638;11.714;2023-07-29T02:54:15;21.60;75.50
78028;DHT22;67235;45.638;11.714;2023-07-29T02:56:41;21.60;75.70
78028;DHT22;67235;45.638;11.714;2023-07-29T02:59:07;21.60;75.60
78028;DHT22;67235;45.638;11.714;2023-07-29T03:01:33;21.60;76.00
78028;DHT22;67235;45.638;11.714;2023-07-29T03:03:59;21.60;75.80
78028;DHT22;67235;45.638;11.714;2023-07-29T03:06:25;21.70;75.90
78028;DHT22;67235;45.638;11.714;2023-07-29T03:08:50;21.70;75.70
78028;DHT22;67235;45.638;11.714;2023-07-29T03:11:16;21.60;75.50
78028;DHT22;67235;45.638;11.714;2023-07-29T03:13:43;21.50;75.50
78028;DHT22;67235;45.638;11.714;2023-07-29T03:16:13;21.40;75.50
78028;DHT22;67235;45.638;11.714;2023-07-29T03:18:40;21.40;75.90
78028;DHT22;67235;45.638;11.714;2023-07-29T03:21:07;21.40;75.90
78028;DHT22;67235;45.638;11.714;2023-07-29T03:23:33;21.40;76.00
78028;DHT22;67235;45.638;11.714;2023-07-29T03:26:00;21.40;76.00
78028;DHT22;67235;45.638;11.714;2023-07-29T03:28:27;21.30;76.20
78028;DHT22;67235;45.638;11.714;2023-07-29T03:30:54;21.40;76.00
78028;DHT22;67235;45.638;11.714;2023-07-29T03:33:20;21.40;76.10
78028;DHT22;67235;45.638;11.714;2023-07-29T03:35:46;21.30;75.90
78028;DHT22;67235;45.638;11.714;2023-07-29T03:38:12;21.20;75.90
78028;DHT22;67235;45.638;11.714;2023-07-29T03:40:39;21.30;75.80
78028;DHT22;67235;45.638;11.714;2023-07-29T03:43:06;21.20;76.20
78028;DHT22;67235;45.638;11.714;2023-07-29T03:45:32;21.30;76.10
78028;DHT22;67235;45.638;11.714;2023-07-29T03:47:59;21.30;76.00
78028;DHT22;67235;45.638;11.714;2023-07-29T03:50:26;21.30;76.00
78028;DHT22;67235;45.638;11.714;2023-07-29T03:52:52;21.30;75.90
78028;DHT22;67235;45.638;11.714;2023-07-29T03:55:18;21.30;75.90
78028;DHT22;67235;45.638;11.714;2023-07-29T03:57:44;21.30;75.90
78028;DHT22;67235;45.638;11.714;2023-07-29T04:00:10;21.30;75.80
78028;DHT22;67235;45.638;11.714;2023-07-29T04:02:36;21.30;76.00
78028;DHT22;67235;45.638;11.714;2023-07-29T04:05:03;21.20;76.10
78028;DHT22;67235;45.638;11.714;2023-07-29T04:07:30;21.30;76.00
78028;DHT22;67235;45.638;11.714;2023-07-29T04:09:57;21.40;75.80
78028;DHT22;67235;45.638;11.714;2023-07-29T04:12:23;21.40;76.00
78028;DHT22;67235;45.638;11.714;2023-07-29T04:14:49;21.40;75.90
78028;DHT22;67235;45.638;11.714;2023-07-29T04:17:15;21.50;76.00
78028;DHT22;67235;45.638;11.714;2023-07-29T04:19:41;21.50;75.70
78028;DHT22;67235;45.638;11.714;2023-07-29T04:22:10;21.70;75.60
78028;DHT22;67235;45.638;11.714;2023-07-29T04:24:39;21.80;75.30
78028;DHT22;67235;45.638;11.714;2023-07-29T04:27:05;22.00;74.80
78028;DHT22;67235;45.638;11.714;2023-07-29T04:29:36;22.40;74.10
78028;DHT22;67235;45.638;11.714;2023-07-29T04:32:03;23.00;73.40
78028;DHT22;67235;45.638;11.714;2023-07-29T04:34:44;23.70;73.50
78028;DHT22;67235;45.638;11.714;2023-07-29T04:37:10;24.40;72.20
78028;DHT22;67235;45.638;11.714;2023-07-29T04:39:40;25.10;70.80
78028;DHT22;67235;45.638;11.714;2023-07-29T04:42:14;25.70;70.00
78028;DHT22;67235;45.638;11.714;2023-07-29T04:44:40;26.30;69.10
78028;DHT22;67235;45.638;11.714;2023-07-29T04:47:10;26.80;68.70
78028;DHT22;67235;45.638;11.714;2023-07-29T04:49:38;27.50;66.30
78028;DHT22;67235;45.638;11.714;2023-07-29T04:52:10;28.00;65.20
78028;DHT22;67235;45.638;11.714;2023-07-29T04:54:42;28.40;64.60
78028;DHT22;67235;45.638;11.714;2023-07-29T04:57:17;28.60;63.90
78028;DHT22;67235;45.638;11.714;2023-07-29T04:59:43;29.10;60.30
78028;DHT22;67235;45.638;11.714;2023-07-29T05:02:09;29.50;58.60
78028;DHT22;67235;45.638;11.714;2023-07-29T05:04:39;30.00;56.20
78028;DHT22;67235;45.638;11.714;2023-07-29T05:07:06;30.50;55.80
78028;DHT22;67235;45.638;11.714;2023-07-29T05:09:36;30.60;55.20
78028;DHT22;67235;45.638;11.714;2023-07-29T05:12:06;30.60;55.40
78028;DHT22;67235;45.638;11.714;2023-07-29T05:14:37;29.70;58.00
78028;DHT22;67235;45.638;11.714;2023-07-29T05:17:04;28.90;63.10
78028;DHT22;67235;45.638;11.714;2023-07-29T05:19:30;28.10;64.90
78028;DHT22;67235;45.638;11.714;2023-07-29T05:21:59;27.40;67.90
78028;DHT22;67235;45.638;11.714;2023-07-29T05:24:27;26.80;69.60
78028;DHT22;67235;45.638;11.714;2023-07-29T05:26:53;26.40;70.10
78028;DHT22;67235;45.638;11.714;2023-07-29T05:29:23;26.10;69.80
78028;DHT22;67235;45.638;11.714;2023-07-29T05:31:52;26.10;69.90
78028;DHT22;67235;45.638;11.714;2023-07-29T05:34:18;26.80;69.80
78028;DHT22;67235;45.638;11.714;2023-07-29T05:36:44;28.10;65.80
78028;DHT22;67235;45.638;11.714;2023-07-29T05:39:10;29.20;60.30
78028;DHT22;67235;45.638;11.714;2023-07-29T05:41:37;30.70;53.70
78028;DHT22;67235;45.638;11.714;2023-07-29T05:44:07;31.90;50.40
78028;DHT22;67235;45.638;11.714;2023-07-29T05:46:33;32.90;46.90
78028;DHT22;67235;45.638;11.714;2023-07-29T05:48:59;33.70;45.50
78028;DHT22;67235;45.638;11.714;2023-07-29T05:51:24;34.20;44.70
78028;DHT22;67235;45.638;11.714;2023-07-29T05:53:50;34.40;44.50
78028;DHT22;67235;45.638;11.714;2023-07-29T05:56:16;34.30;43.10
78028;DHT22;67235;45.638;11.714;2023-07-29T05:58:42;33.50;44.90
78028;DHT22;67235;45.638;11.714;2023-07-29T06:01:08;33.30;45.30
78028;DHT22;67235;45.638;11.714;2023-07-29T06:03:34;33.90;45.00
78028;DHT22;67235;45.638;11.714;2023-07-29T06:06:00;34.60;43.30
78028;DHT22;67235;45.638;11.714;2023-07-29T06:08:25;35.20;41.50
78028;DHT22;67235;45.638;11.714;2023-07-29T06:10:54;35.70;40.70
78028;DHT22;67235;45.638;11.714;2023-07-29T06:13:19;36.10;40.80
78028;DHT22;67235;45.638;11.714;2023-07-29T06:15:45;36.80;40.70
78028;DHT22;67235;45.638;11.714;2023-07-29T06:18:16;37.20;39.70
78028;DHT22;67235;45.638;11.714;2023-07-29T06:20:47;37.50;39.40
78028;DHT22;67235;45.638;11.714;2023-07-29T06:23:31;37.60;38.00
78028;DHT22;67235;45.638;11.714;2023-07-29T06:26:01;37.20;39.70
78028;DHT22;67235;45.638;11.714;2023-07-29T06:28:30;36.90;39.00
78028;DHT22;67235;45.638;11.714;2023-07-29T06:30:56;37.40;39.20
78028;DHT22;67235;45.638;11.714;2023-07-29T06:33:21;37.70;38.00
78028;DHT22;67235;45.638;11.714;2023-07-29T06:35:47;37.90;38.10
78028;DHT22;67235;45.638;11.714;2023-07-29T06:38:13;38.00;37.40
78028;DHT22;67235;45.638;11.714;2023-07-29T06:40:39;38.10;36.70
78028;DHT22;67235;45.638;11.714;2023-07-29T06:43:05;38.10;37.10
78028;DHT22;67235;45.638;11.714;2023-07-29T06:45:31;38.20;36.20
78028;DHT22;67235;45.638;11.714;2023-07-29T06:47:57;38.20;36.00
78028;DHT22;67235;45.638;11.714;2023-07-29T06:50:23;38.60;36.30
78028;DHT22;67235;45.638;11.714;2023-07-29T06:52:48;38.40;36.00
78028;DHT22;67235;45.638;11.714;2023-07-29T06:55:14;38.50;35.90
78028;DHT22;67235;45.638;11.714;2023-07-29T06:57:40;38.80;34.30
78028;DHT22;67235;45.638;11.714;2023-07-29T07:00:07;38.40;36.70
78028;DHT22;67235;45.638;11.714;2023-07-29T07:02:34;38.70;36.00
78028;DHT22;67235;45.638;11.714;2023-07-29T07:05:00;38.90;36.70
78028;DHT22;67235;45.638;11.714;2023-07-29T07:07:26;38.70;35.50
78028;DHT22;67235;45.638;11.714;2023-07-29T07:09:52;38.90;34.40
78028;DHT22;67235;45.638;11.714;2023-07-29T07:12:18;38.70;35.90
78028;DHT22;67235;45.638;11.714;2023-07-29T07:14:44;38.90;36.40
78028;DHT22;67235;45.638;11.714;2023-07-29T07:17:10;38.20;35.40
78028;DHT22;67235;45.638;11.714;2023-07-29T07:19:38;38.10;36.80
78028;DHT22;67235;45.638;11.714;2023-07-29T07:22:08;38.30;35.20
78028;DHT22;67235;45.638;11.714;2023-07-29T07:24:34;37.90;36.10
78028;DHT22;67235;45.638;11.714;2023-07-29T07:27:00;37.30;37.90
78028;DHT22;67235;45.638;11.714;2023-07-29T07:29:26;36.90;38.90
78028;DHT22;67235;45.638;11.714;2023-07-29T07:31:53;36.40;41.00
78028;DHT22;67235;45.638;11.714;2023-07-29T07:34:22;36.10;41.00
78028;DHT22;67235;45.638;11.714;2023-07-29T07:36:49;35.90;41.60
78028;DHT22;67235;45.638;11.714;2023-07-29T07:39:15;36.10;43.60
78028;DHT22;67235;45.638;11.714;2023-07-29T07:41:41;35.80;40.80
78028;DHT22;67235;45.638;11.714;2023-07-29T07:44:08;35.80;41.20
78028;DHT22;67235;45.638;11.714;2023-07-29T07:46:34;35.70;41.20
78028;DHT22;67235;45.638;11.714;2023-07-29T07:49:00;35.40;41.10
78028;DHT22;67235;45.638;11.714;2023-07-29T07:51:25;35.20;43.40
78028;DHT22;67235;45.638;11.714;2023-07-29T07:53:51;35.30;42.90
78028;DHT22;67235;45.638;11.714;2023-07-29T07:56:17;35.30;42.70
78028;DHT22;67235;45.638;11.714;2023-07-29T07:58:43;35.20;43.90
78028;DHT22;67235;45.638;11.714;2023-07-29T08:01:10;35.50;39.70
78028;DHT22;67235;45.638;11.714;2023-07-29T08:03:37;35.40;42.20
78028;DHT22;67235;45.638;11.714;2023-07-29T08:06:08;35.30;40.30
78028;DHT22;67235;45.638;11.714;2023-07-29T08:08:36;35.20;42.90
78028;DHT22;67235;45.638;11.714;2023-07-29T08:11:04;35.30;41.70
78028;DHT22;67235;45.638;11.714;2023-07-29T08:13:31;35.10;42.00
78028;DHT22;67235;45.638;11.714;2023-07-29T08:16:00;35.10;42.60
78028;DHT22;67235;45.638;11.714;2023-07-29T08:18:28;35.10;44.20
78028;DHT22;67235;45.638;11.714;2023-07-29T08:21:00;35.10;43.70
78028;DHT22;67235;45.638;11.714;2023-07-29T08:23:38;35.40;43.30
78028;DHT22;67235;45.638;11.714;2023-07-29T08:26:09;35.00;42.00
78028;DHT22;67235;45.638;11.714;2023-07-29T08:28:43;35.30;43.40
78028;DHT22;67235;45.638;11.714;2023-07-29T08:31:12;34.70;43.90
78028;DHT22;67235;45.638;11.714;2023-07-29T08:33:45;34.50;45.60
78028;DHT22;67235;45.638;11.714;2023-07-29T08:36:18;34.80;44.40
78028;DHT22;67235;45.638;11.714;2023-07-29T08:38:47;35.10;42.90
78028;DHT22;67235;45.638;11.714;2023-07-29T08:46:24;36.20;41.50
78028;DHT22;67235;45.638;11.714;2023-07-29T08:48:51;35.90;38.80
78028;DHT22;67235;45.638;11.714;2023-07-29T08:51:18;35.70;41.30
78028;DHT22;67235;45.638;11.714;2023-07-29T08:53:45;35.80;40.30
78028;DHT22;67235;45.638;11.714;2023-07-29T08:56:12;35.70;38.90
78028;DHT22;67235;45.638;11.714;2023-07-29T08:58:39;35.90;40.40
78028;DHT22;67235;45.638;11.714;2023-07-29T09:01:06;35.80;40.80
78028;DHT22;67235;45.638;11.714;2023-07-29T09:03:32;35.60;41.50
78028;DHT22;67235;45.638;11.714;2023-07-29T09:06:05;36.10;40.80
78028;DHT22;67235;45.638;11.714;2023-07-29T09:08:38;35.70;40.90
78028;DHT22;67235;45.638;11.714;2023-07-29T09:11:03;35.30;41.60
78028;DHT22;67235;45.638;11.714;2023-07-29T09:13:29;35.10;42.00
78028;DHT22;67235;45.638;11.714;2023-07-29T09:15:57;34.30;43.40
78028;DHT22;67235;45.638;11.714;2023-07-29T09:18:23;33.80;45.50
78028;DHT22;67235;45.638;11.714;2023-07-29T09:20:51;33.70;46.60
78028;DHT22;67235;45.638;11.714;2023-07-29T09:23:17;34.50;45.50
78028;DHT22;67235;45.638;11.714;2023-07-29T09:25:43;35.00;44.00
78028;DHT22;67235;45.638;11.714;2023-07-29T09:28:12;35.40;43.30
78028;DHT22;67235;45.638;11.714;2023-07-29T09:30:40;35.70;41.50
78028;DHT22;67235;45.638;11.714;2023-07-29T09:33:06;36.00;43.00
78028;DHT22;67235;45.638;11.714;2023-07-29T09:35:34;36.30;42.90
78028;DHT22;67235;45.638;11.714;2023-07-29T09:38:02;36.60;40.80
78028;DHT22;67235;45.638;11.714;2023-07-29T09:40:44;35.60;39.60
78028;DHT22;67235;45.638;11.714;2023-07-29T09:43:17;34.90;42.40
78028;DHT22;67235;45.638;11.714;2023-07-29T09:45:43;35.00;43.90
78028;DHT22;67235;45.638;11.714;2023-07-29T09:48:11;35.20;43.30
78028;DHT22;67235;45.638;11.714;2023-07-29T09:50:37;35.40;43.20
78028;DHT22;67235;45.638;11.714;2023-07-29T09:53:03;35.60;42.70
78028;DHT22;67235;45.638;11.714;2023-07-29T09:55:33;35.60;41.10
78028;DHT22;67235;45.638;11.714;2023-07-29T09:58:01;35.30;43.00
78028;DHT22;67235;45.638;11.714;2023-07-29T10:00:30;35.40;42.00
78028;DHT22;67235;45.638;11.714;2023-07-29T10:02:58;35.40;43.40
78028;DHT22;67235;45.638;11.714;2023-07-29T10:05:26;35.30;40.10
78028;DHT22;67235;45.638;11.714;2023-07-29T10:07:54;35.40;42.80
78028;DHT22;67235;45.638;11.714;2023-07-29T10:10:20;35.60;39.50
78028;DHT22;67235;45.638;11.714;2023-07-29T10:12:46;35.40;40.80
78028;DHT22;67235;45.638;11.714;2023-07-29T10:15:13;35.60;40.10
78028;DHT22;67235;45.638;11.714;2023-07-29T10:17:40;35.50;43.80
78028;DHT22;67235;45.638;11.714;2023-07-29T10:20:10;35.60;41.00
78028;DHT22;67235;45.638;11.714;2023-07-29T10:22:40;35.80;41.00
78028;DHT22;67235;45.638;11.714;2023-07-29T10:25:15;35.80;40.20
78028;DHT22;67235;45.638;11.714;2023-07-29T10:27:49;35.70;41.70
78028;DHT22;67235;45.638;11.714;2023-07-29T10:30:18;35.40;40.40
78028;DHT22;67235;45.638;11.714;2023-07-29T10:32:45;35.10;41.60
78028;DHT22;67235;45.638;11.714;2023-07-29T10:35:14;34.80;42.40
78028;DHT22;67235;45.638;11.714;2023-07-29T10:37:40;34.20;42.30
78028;DHT22;67235;45.638;11.714;2023-07-29T10:40:09;33.90;42.30
78028;DHT22;67235;45.638;11.714;2023-07-29T10:42:37;33.50;43.90
78028;DHT22;67235;45.638;11.714;2023-07-29T10:45:21;33.20;42.90
78028;DHT22;67235;45.638;11.714;2023-07-29T10:47:48;32.80;42.00
78028;DHT22;67235;45.638;11.714;2023-07-29T10:50:19;32.50;43.70
78028;DHT22;67235;45.638;11.714;2023-07-29T10:52:49;32.50;44.80
78028;DHT22;67235;45.638;11.714;2023-07-29T10:55:36;33.00;44.00
78028;DHT22;67235;45.638;11.714;2023-07-29T10:58:12;33.50;44.70
78028;DHT22;67235;45.638;11.714;2023-07-29T11:00:41;33.90;43.40
78028;DHT22;67235;45.638;11.714;2023-07-29T11:03:08;34.30;43.10
78028;DHT22;67235;45.638;11.714;2023-07-29T11:05:50;34.60;43.70
78028;DHT22;67235;45.638;11.714;2023-07-29T11:08:36;34.20;42.30
78028;DHT22;67235;45.638;11.714;2023-07-29T11:11:12;34.20;42.60
78028;DHT22;67235;45.638;11.714;2023-07-29T11:13:38;34.50;42.40
78028;DHT22;67235;45.638;11.714;2023-07-29T11:16:05;34.40;41.40
78028;DHT22;67235;45.638;11.714;2023-07-29T11:18:35;34.50;43.40
78028;DHT22;67235;45.638;11.714;2023-07-29T11:21:03;34.70;43.10
78028;DHT22;67235;45.638;11.714;2023-07-29T11:23:34;34.50;40.20
78028;DHT22;67235;45.638;11.714;2023-07-29T11:26:01;33.70;41.70
78028;DHT22;67235;45.638;11.714;2023-07-29T11:28:27;33.30;41.90
78028;DHT22;67235;45.638;11.714;2023-07-29T11:30:57;33.20;44.60
78028;DHT22;67235;45.638;11.714;2023-07-29T11:33:25;33.10;44.00
78028;DHT22;67235;45.638;11.714;2023-07-29T11:35:51;32.80;44.80
78028;DHT22;67235;45.638;11.714;2023-07-29T11:38:19;32.60;43.60
78028;DHT22;67235;45.638;11.714;2023-07-29T11:40:58;32.40;46.60
78028;DHT22;67235;45.638;11.714;2023-07-29T11:43:27;32.70;48.10
78028;DHT22;67235;45.638;11.714;2023-07-29T11:45:55;33.00;45.30
78028;DHT22;67235;45.638;11.714;2023-07-29T11:48:31;33.30;47.40
78028;DHT22;67235;45.638;11.714;2023-07-29T11:50:59;33.60;41.60
78028;DHT22;67235;45.638;11.714;2023-07-29T11:53:31;33.80;45.30
78028;DHT22;67235;45.638;11.714;2023-07-29T11:56:02;34.00;44.40
78028;DHT22;67235;45.638;11.714;2023-07-29T11:58:34;34.00;43.90
78028;DHT22;67235;45.638;11.714;2023-07-29T12:01:01;34.30;45.20
78028;DHT22;67235;45.638;11.714;2023-07-29T12:03:35;34.30;43.50
78028;DHT22;67235;45.638;11.714;2023-07-29T12:06:02;34.30;41.50
78028;DHT22;67235;45.638;11.714;2023-07-29T12:08:31;34.20;39.80
78028;DHT22;67235;45.638;11.714;2023-07-29T12:10:57;33.80;39.90
78028;DHT22;67235;45.638;11.714;2023-07-29T12:13:24;33.90;40.00
78028;DHT22;67235;45.638;11.714;2023-07-29T12:15:51;33.80;39.90
78028;DHT22;67235;45.638;11.714;2023-07-29T12:18:16;34.00;41.30
78028;DHT22;67235;45.638;11.714;2023-07-29T12:20:43;33.90;42.00
78028;DHT22;67235;45.638;11.714;2023-07-29T12:23:09;33.80;40.70
78028;DHT22;67235;45.638;11.714;2023-07-29T12:25:38;33.80;40.10
78028;DHT22;67235;45.638;11.714;2023-07-29T12:28:07;34.00;40.00
78028;DHT22;67235;45.638;11.714;2023-07-29T12:30:33;34.00;40.90
78028;DHT22;67235;45.638;11.714;2023-07-29T12:32:59;34.00;41.00
78028;DHT22;67235;45.638;11.714;2023-07-29T12:35:50;34.20;40.90
78028;DHT22;67235;45.638;11.714;2023-07-29T12:38:21;34.10;41.40
78028;DHT22;67235;45.638;11.714;2023-07-29T12:40:51;34.10;39.40
78028;DHT22;67235;45.638;11.714;2023-07-29T12:43:20;34.10;39.70
78028;DHT22;67235;45.638;11.714;2023-07-29T12:45:46;33.90;41.40
78028;DHT22;67235;45.638;11.714;2023-07-29T12:48:12;33.80;39.80
78028;DHT22;67235;45.638;11.714;2023-07-29T12:50:38;33.80;42.00
78028;DHT22;67235;45.638;11.714;2023-07-29T12:53:06;33.70;42.90
78028;DHT22;67235;45.638;11.714;2023-07-29T12:55:33;33.40;38.80
78028;DHT22;67235;45.638;11.714;2023-07-29T12:57:59;32.90;42.60
78028;DHT22;67235;45.638;11.714;2023-07-29T13:00:25;33.00;41.60
78028;DHT22;67235;45.638;11.714;2023-07-29T13:02:51;33.00;41.50
78028;DHT22;67235;45.638;11.714;2023-07-29T13:05:17;32.90;40.30
78028;DHT22;67235;45.638;11.714;2023-07-29T13:07:43;32.80;42.60
78028;DHT22;67235;45.638;11.714;2023-07-29T13:10:11;33.00;43.90
78028;DHT22;67235;45.638;11.714;2023-07-29T13:12:37;33.00;41.80
78028;DHT22;67235;45.638;11.714;2023-07-29T13:15:04;33.00;42.60
78028;DHT22;67235;45.638;11.714;2023-07-29T13:17:30;33.10;42.20
78028;DHT22;67235;45.638;11.714;2023-07-29T13:19:56;33.00;42.50
78028;DHT22;67235;45.638;11.714;2023-07-29T13:22:22;33.40;44.30
78028;DHT22;67235;45.638;11.714;2023-07-29T13:24:47;33.30;41.80
78028;DHT22;67235;45.638;11.714;2023-07-29T13:27:13;33.50;43.80
78028;DHT22;67235;45.638;11.714;2023-07-29T13:29:39;33.50;41.60
78028;DHT22;67235;45.638;11.714;2023-07-29T13:32:06;33.30;43.60
78028;DHT22;67235;45.638;11.714;2023-07-29T13:34:35;33.10;42.40
78028;DHT22;67235;45.638;11.714;2023-07-29T13:37:03;33.00;42.40
78028;DHT22;67235;45.638;11.714;2023-07-29T13:39:31;32.90;42.80
78028;DHT22;67235;45.638;11.714;2023-07-29T13:41:56;33.00;42.40
78028;DHT22;67235;45.638;11.714;2023-07-29T13:44:22;32.80;42.90
78028;DHT22;67235;45.638;11.714;2023-07-29T13:46:48;32.70;42.70
78028;DHT22;67235;45.638;11.714;2023-07-29T13:49:14;32.70;43.60
78028;DHT22;67235;45.638;11.714;2023-07-29T13:51:40;32.90;44.50
78028;DHT22;67235;45.638;11.714;2023-07-29T13:54:08;33.00;43.90
78028;DHT22;67235;45.638;11.714;2023-07-29T13:56:34;32.90;45.40
78028;DHT22;67235;45.638;11.714;2023-07-29T13:59:00;33.00;46.20
78028;DHT22;67235;45.638;11.714;2023-07-29T14:01:25;33.10;45.10
78028;DHT22;67235;45.638;11.714;2023-07-29T14:03:51;32.90;41.30
78028;DHT22;67235;45.638;11.714;2023-07-29T14:06:17;32.90;42.60
78028;DHT22;67235;45.638;11.714;2023-07-29T14:08:43;32.80;43.70
78028;DHT22;67235;45.638;11.714;2023-07-29T14:11:09;32.80;43.40
78028;DHT22;67235;45.638;11.714;2023-07-29T14:13:36;33.00;45.00
78028;DHT22;67235;45.638;11.714;2023-07-29T14:16:02;32.90;42.90
78028;DHT22;67235;45.638;11.714;2023-07-29T14:18:30;32.90;41.30
78028;DHT22;67235;45.638;11.714;2023-07-29T14:20:56;32.90;44.40
78028;DHT22;67235;45.638;11.714;2023-07-29T14:23:22;32.90;43.80
78028;DHT22;67235;45.638;11.714;2023-07-29T14:25:48;32.90;43.60
78028;DHT22;67235;45.638;11.714;2023-07-29T14:28:14;32.80;42.70
78028;DHT22;67235;45.638;11.714;2023-07-29T14:30:40;32.40;42.40
78028;DHT22;67235;45.638;11.714;2023-07-29T14:33:07;32.30;43.50
78028;DHT22;67235;45.638;11.714;2023-07-29T14:35:33;32.50;48.20
78028;DHT22;67235;45.638;11.714;2023-07-29T14:37:58;32.40;45.00
78028;DHT22;67235;45.638;11.714;2023-07-29T14:40:24;32.60;43.30
78028;DHT22;67235;45.638;11.714;2023-07-29T14:42:50;32.50;42.70
78028;DHT22;67235;45.638;11.714;2023-07-29T14:45:16;32.70;44.30
78028;DHT22;67235;45.638;11.714;2023-07-29T14:47:42;32.70;44.90
78028;DHT22;67235;45.638;11.714;2023-07-29T14:50:08;32.70;44.00
78028;DHT22;67235;45.638;11.714;2023-07-29T14:52:34;32.70;44.00
78028;DHT22;67235;45.638;11.714;2023-07-29T14:55:00;32.20;42.50
78028;DHT22;67235;45.638;11.714;2023-07-29T14:57:26;32.20;44.80
78028;DHT22;67235;45.638;11.714;2023-07-29T14:59:51;32.30;44.10
78028;DHT22;67235;45.638;11.714;2023-07-29T15:02:17;32.30;45.00
78028;DHT22;67235;45.638;11.714;2023-07-29T15:04:43;32.20;42.50
78028;DHT22;67235;45.638;11.714;2023-07-29T15:07:09;32.40;44.50
78028;DHT22;67235;45.638;11.714;2023-07-29T15:09:35;32.60;44.40
78028;DHT22;67235;45.638;11.714;2023-07-29T15:12:01;32.90;41.80
78028;DHT22;67235;45.638;11.714;2023-07-29T15:14:27;33.00;43.30
78028;DHT22;67235;45.638;11.714;2023-07-29T15:16:53;32.90;43.10
78028;DHT22;67235;45.638;11.714;2023-07-29T15:19:19;32.60;40.80
78028;DHT22;67235;45.638;11.714;2023-07-29T15:21:45;32.70;42.40
78028;DHT22;67235;45.638;11.714;2023-07-29T15:24:12;32.70;43.00
78028;DHT22;67235;45.638;11.714;2023-07-29T15:26:37;32.70;44.60
78028;DHT22;67235;45.638;11.714;2023-07-29T15:29:03;32.50;41.20